Time;durP1;ratioP1;P1;durP2;ratioP2;P2;SDS_P1;SDS_P2;PMS_P1;PMS_P2;Temp;Humidity;BMP_temperature;BMP_pressure;BME280_temperature;BME280_humidity;BME280_pressure;Samples;Min_cycle;Max_cycle;Signal;HPM_P1;HPM_P2
2024/02/10 00:01:46;;;;;;;21.88;14.30;;;;;;;6.72;100.00;94116.47;5032372;28;20498;-78
2024/02/10 00:04:18;;;;;;;22.58;14.35;;;;;;;6.80;100.00;94123.34;5034914;28;20041;-76
2024/02/10 00:06:46;;;;;;;24.63;14.50;;;;;;;6.72;100.00;94119.19;5041555;28;20470;-77
2024/02/10 00:09:13;;;;;;;23.60;15.48;;;;;;;6.71;100.00;94112.19;5036331;28;20033;-77
2024/02/10 00:11:38;;;;;;;22.38;14.93;;;;;;;6.84;100.00;94112.44;5043183;28;20044;-77
2024/02/10 00:14:05;;;;;;;26.25;15.50;;;;;;;7.01;100.00;94110.72;5041675;28;20047;-78
2024/02/10 00:16:33;;;;;;;23.00;15.05;;;;;;;7.02;100.00;94120.41;5049232;28;20052;-77
2024/02/10 00:19:02;;;;;;;24.98;15.45;;;;;;;7.03;100.00;94119.22;5039736;28;20041;-77
2024/02/10 00:21:29;;;;;;;27.63;16.42;;;;;;;7.02;100.00;94114.97;5039218;28;20049;-77
2024/02/10 00:23:56;;;;;;;24.27;15.30;;;;;;;7.14;100.00;94117.16;5047407;28;20418;-77
2024/02/10 00:26:22;;;;;;;26.38;15.40;;;;;;;7.20;100.00;94114.75;5037093;28;20136;-78
2024/02/10 00:28:53;;;;;;;26.40;16.15;;;;;;;7.14;100.00;94108.22;5041605;28;20810;-79
2024/02/10 00:31:23;;;;;;;24.40;15.73;;;;;;;6.96;100.00;94098.31;5039908;28;20108;-77
2024/02/10 00:33:50;;;;;;;26.50;16.17;;;;;;;6.87;100.00;94103.47;5049189;28;20143;-75
2024/02/10 00:36:17;;;;;;;26.58;16.00;;;;;;;6.68;100.00;94105.63;5053925;28;20096;-77
2024/02/10 00:38:42;;;;;;;24.67;15.45;;;;;;;6.67;100.00;94104.06;5067228;28;20236;-76
2024/02/10 00:41:13;;;;;;;24.85;16.52;;;;;;;6.76;100.00;94109.03;5060296;28;20144;-73
2024/02/10 00:43:42;;;;;;;26.77;15.88;;;;;;;6.67;100.00;94114.19;5063523;28;20074;-75
2024/02/10 00:46:15;;;;;;;25.60;16.52;;;;;;;6.82;100.00;94117.50;5035796;28;20095;-76
2024/02/10 00:48:44;;;;;;;25.65;16.25;;;;;;;6.86;100.00;94105.44;5035491;28;20068;-74
2024/02/10 00:51:09;;;;;;;23.35;15.43;;;;;;;6.82;100.00;94109.34;5040946;28;20080;-74
2024/02/10 00:53:39;;;;;;;22.77;15.65;;;;;;;6.78;100.00;94103.19;5047327;28;20101;-75
2024/02/10 00:56:07;;;;;;;22.42;15.38;;;;;;;6.62;100.00;94101.78;5043500;28;20074;-74
2024/02/10 00:58:32;;;;;;;23.83;15.88;;;;;;;6.50;100.00;94107.75;5041267;28;20044;-75
2024/02/10 01:00:57;;;;;;;25.90;15.85;;;;;;;6.41;100.00;94100.06;5048200;28;20040;-74
2024/02/10 01:03:23;;;;;;;28.08;16.63;;;;;;;6.26;100.00;94099.41;5034384;28;20072;-75
2024/02/10 01:05:48;;;;;;;30.77;17.25;;;;;;;6.07;100.00;94108.88;5047552;28;20037;-76
2024/02/10 01:08:14;;;;;;;30.98;18.67;;;;;;;5.96;100.00;94107.41;5034297;28;20132;-76
2024/02/10 01:10:39;;;;;;;39.38;24.13;;;;;;;5.91;100.00;94105.88;5040409;28;20036;-75
2024/02/10 01:13:04;;;;;;;24.83;17.95;;;;;;;5.96;100.00;94118.28;5035231;28;20072;-74
2024/02/10 01:15:30;;;;;;;25.90;17.77;;;;;;;5.98;100.00;94116.72;5040848;28;20049;-76
2024/02/10 01:18:03;;;;;;;29.48;17.98;;;;;;;5.92;100.00;94108.22;5047124;28;20446;-76
2024/02/10 01:20:29;;;;;;;28.35;17.60;;;;;;;5.92;100.00;94096.56;5039776;28;20036;-76
2024/02/10 01:22:57;;;;;;;27.58;17.73;;;;;;;5.92;100.00;94104.69;5055418;28;20041;-75
2024/02/10 01:25:24;;;;;;;28.23;17.20;;;;;;;6.03;100.00;94107.38;5042380;28;20716;-75
2024/02/10 01:27:50;;;;;;;28.92;18.67;;;;;;;6.05;100.00;94097.66;5047314;28;20102;-75
2024/02/10 01:30:20;;;;;;;26.38;17.98;;;;;;;6.02;100.00;94100.41;5058911;28;20041;-75
2024/02/10 01:32:48;;;;;;;29.33;19.17;;;;;;;5.95;100.00;94103.91;5044614;28;20032;-75
2024/02/10 01:35:15;;;;;;;27.88;18.27;;;;;;;5.92;100.00;94099.25;5038980;28;20713;-75
2024/02/10 01:37:41;;;;;;;28.73;17.38;;;;;;;5.92;100.00;94091.91;5043820;28;20127;-75
2024/02/10 01:40:11;;;;;;;25.52;17.30;;;;;;;5.92;100.00;94089.19;5040914;28;20128;-75
2024/02/10 01:42:37;;;;;;;30.13;17.33;;;;;;;6.06;100.00;94080.16;5047274;28;20045;-74
2024/02/10 01:45:11;;;;;;;24.67;16.08;;;;;;;6.12;100.00;94083.22;5035952;28;20048;-75
2024/02/10 01:47:46;;;;;;;23.55;15.57;;;;;;;6.08;100.00;94082.47;5012876;28;20065;-75
2024/02/10 01:50:13;;;;;;;31.52;17.73;;;;;;;5.87;100.00;94081.47;5020383;28;20128;-75
2024/02/10 01:52:39;;;;;;;28.17;17.85;;;;;;;5.60;100.00;94069.63;5017292;28;20602;-75
2024/02/10 01:55:06;;;;;;;43.30;19.58;;;;;;;5.45;100.00;94063.53;5026390;28;20065;-74
2024/02/10 01:57:33;;;;;;;35.65;20.55;;;;;;;5.35;100.00;94057.00;5024819;28;20045;-76
2024/02/10 02:00:05;;;;;;;31.27;19.33;;;;;;;5.27;100.00;94052.78;5029067;28;20049;-74
2024/02/10 02:02:34;;;;;;;28.13;17.50;;;;;;;5.38;100.00;94041.84;5026732;28;20055;-75
2024/02/10 02:05:00;;;;;;;30.02;18.35;;;;;;;5.44;100.00;94041.03;5020197;28;20217;-73
2024/02/10 02:07:30;;;;;;;26.83;19.02;;;;;;;5.47;100.00;94031.31;5015664;28;20052;-74
2024/02/10 02:09:58;;;;;;;31.90;19.75;;;;;;;5.38;100.00;94039.13;5020069;28;20068;-73
2024/02/10 02:12:23;;;;;;;275.55;29.80;;;;;;;5.23;100.00;94043.88;5036302;28;21041;-73
2024/02/10 02:14:48;;;;;;;362.20;33.50;;;;;;;5.14;100.00;94039.66;5021886;28;20046;-75
2024/02/10 02:17:14;;;;;;;52.13;23.58;;;;;;;5.11;100.00;94040.47;5033377;28;20045;-76
2024/02/10 02:19:42;;;;;;;39.40;22.92;;;;;;;5.11;100.00;94028.81;5038044;28;20071;-76
2024/02/10 02:22:09;;;;;;;44.10;26.42;;;;;;;5.06;100.00;94027.31;5033222;28;20067;-75
2024/02/10 02:24:35;;;;;;;47.78;27.58;;;;;;;5.06;100.00;94027.31;5043019;28;20061;-75
2024/02/10 02:27:02;;;;;;;48.90;26.38;;;;;;;5.10;100.00;94024.59;5038330;28;20048;-75
2024/02/10 02:29:28;;;;;;;47.75;27.00;;;;;;;5.22;100.00;94028.75;5049300;28;20057;-75
2024/02/10 02:31:59;;;;;;;52.05;27.05;;;;;;;5.20;100.00;94031.09;5043670;28;20045;-77
2024/02/10 02:34:33;;;;;;;41.60;24.80;;;;;;;5.06;100.00;94037.38;5029598;28;20145;-74
2024/02/10 02:37:02;;;;;;;38.75;21.75;;;;;;;4.84;100.00;94025.88;5027570;28;20037;-77
2024/02/10 02:39:30;;;;;;;108.22;25.42;;;;;;;4.64;100.00;94025.56;5030250;28;20075;-75
2024/02/10 02:41:59;;;;;;;44.03;28.13;;;;;;;4.55;100.00;94024.03;5043393;28;20033;-75
2024/02/10 02:44:26;;;;;;;26.77;17.48;;;;;;;4.55;100.00;94017.84;5047869;28;20042;-75
2024/02/10 02:46:54;;;;;;;27.27;19.23;;;;;;;4.46;100.00;94020.22;5056177;28;20072;-75
2024/02/10 02:49:23;;;;;;;25.50;17.52;;;;;;;4.38;100.00;94009.41;5049305;28;20423;-74
2024/02/10 02:51:52;;;;;;;28.45;16.90;;;;;;;4.37;100.00;94013.25;5042892;28;20250;-73
2024/02/10 02:54:18;;;;;;;35.15;20.73;;;;;;;4.39;100.00;94004.75;5039279;28;20051;-75
2024/02/10 02:56:45;;;;;;;37.63;21.40;;;;;;;4.45;100.00;94010.53;5034169;28;20037;-76
2024/02/10 02:59:14;;;;;;;134.30;24.48;;;;;;;4.40;100.00;94001.66;5055681;28;20491;-76
2024/02/10 03:01:40;;;;;;;246.65;27.98;;;;;;;4.28;100.00;93996.66;5062002;28;20048;-74
2024/02/10 03:04:06;;;;;;;203.88;24.58;;;;;;;4.01;100.00;94004.47;5049837;28;20548;-74
2024/02/10 03:06:32;;;;;;;31.23;19.98;;;;;;;3.88;100.00;94006.03;5059524;28;20040;-74
2024/02/10 03:08:58;;;;;;;34.08;18.42;;;;;;;3.94;100.00;93996.34;5049991;28;20059;-75
2024/02/10 03:11:26;;;;;;;30.52;17.48;;;;;;;4.03;100.00;93994.00;5046029;28;20106;-75
2024/02/10 03:13:52;;;;;;;30.42;17.38;;;;;;;3.91;100.00;93978.94;5062393;28;20036;-75
2024/02/10 03:16:19;;;;;;;35.08;18.15;;;;;;;3.89;100.00;93981.28;5048935;28;20398;-74
2024/02/10 03:18:46;;;;;;;26.75;18.52;;;;;;;3.89;100.00;93970.44;5060922;28;20419;-74
2024/02/10 03:21:17;;;;;;;85.22;20.63;;;;;;;3.91;100.00;93970.81;5066099;28;20036;-74
2024/02/10 03:23:44;;;;;;;362.92;29.85;;;;;;;3.91;100.00;93976.25;5071212;28;20103;-74
2024/02/10 03:26:11;;;;;;;115.72;25.17;;;;;;;4.03;100.00;93977.75;5042705;28;20102;-76
2024/02/10 03:28:37;;;;;;;67.30;24.70;;;;;;;4.20;100.00;93981.59;5053687;28;20182;-76
2024/02/10 03:31:03;;;;;;;113.65;25.83;;;;;;;4.35;100.00;93971.47;5050639;28;20650;-71
2024/02/10 03:33:31;;;;;;;112.88;28.08;;;;;;;4.29;100.00;93964.94;5057860;28;20163;-75
2024/02/10 03:35:57;;;;;;;120.60;29.15;;;;;;;4.35;100.00;93968.75;5053202;28;20071;-77
2024/02/10 03:38:23;;;;;;;188.65;32.83;;;;;;;4.42;100.00;93967.97;5047237;28;20095;-75
2024/02/10 03:40:49;;;;;;;144.77;32.72;;;;;;;4.42;100.00;93976.09;5051691;28;20131;-73
2024/02/10 03:43:14;;;;;;;245.40;41.92;;;;;;;4.44;100.00;93969.09;5041047;28;20037;-74
2024/02/10 03:45:39;;;;;;;83.47;30.05;;;;;;;4.47;100.00;93981.88;5061383;28;20063;-75
2024/02/10 03:48:07;;;;;;;112.55;32.40;;;;;;;4.43;100.00;93981.13;5057960;28;20044;-76
2024/02/10 03:50:32;;;;;;;109.20;34.17;;;;;;;4.34;100.00;93983.47;5061913;28;20559;-74
2024/02/10 03:52:59;;;;;;;141.35;34.95;;;;;;;4.22;100.00;93987.38;5061237;28;20135;-73
2024/02/10 03:55:24;;;;;;;72.32;31.38;;;;;;;4.20;100.00;93978.88;5048651;28;20136;-74
2024/02/10 03:57:53;;;;;;;103.03;32.78;;;;;;;4.16;100.00;93995.16;5057064;28;20139;-73
2024/02/10 04:00:26;;;;;;;315.30;40.38;;;;;;;4.11;100.00;93979.28;5045679;28;20049;-72
2024/02/10 04:02:55;;;;;;;108.78;33.25;;;;;;;4.12;100.00;93982.75;5052804;28;20039;-73
2024/02/10 04:05:21;;;;;;;209.93;36.72;;;;;;;4.14;100.00;93985.84;5057213;28;20041;-73
2024/02/10 04:07:51;;;;;;;335.88;42.72;;;;;;;4.14;100.00;93983.13;5057906;28;20102;-72
2024/02/10 04:10:17;;;;;;;261.13;45.08;;;;;;;4.21;100.00;93983.91;5053751;28;20071;-73
2024/02/10 04:12:43;;;;;;;119.57;36.50;;;;;;;4.42;100.00;93976.09;5052496;28;20036;-73
2024/02/10 04:15:11;;;;;;;253.68;45.17;;;;;;;4.41;100.00;93972.59;5058463;28;20572;-72
2024/02/10 04:17:38;;;;;;;350.35;45.15;;;;;;;4.48;100.00;93971.81;5053425;28;20041;-72
2024/02/10 04:20:07;;;;;;;419.15;50.45;;;;;;;4.59;100.00;93980.66;5049213;28;20571;-73
2024/02/10 04:22:37;;;;;;;443.45;51.28;;;;;;;4.63;100.00;93981.44;5051612;28;20068;-72
2024/02/10 04:25:10;;;;;;;471.83;55.50;;;;;;;4.70;100.00;93980.59;5047512;28;20144;-71
2024/02/10 04:27:36;;;;;;;183.15;48.53;;;;;;;4.78;100.00;93971.28;5057710;28;20041;-71
2024/02/10 04:30:05;;;;;;;233.40;46.50;;;;;;;4.88;100.00;93983.22;5060320;28;20763;-71
2024/02/10 04:32:42;;;;;;;163.77;51.93;;;;;;;4.84;100.00;93980.53;5055198;28;20655;-71
2024/02/10 04:35:08;;;;;;;186.35;46.95;;;;;;;4.85;100.00;93976.66;5055763;28;20150;-72
2024/02/10 04:37:35;;;;;;;164.43;46.17;;;;;;;4.86;100.00;93980.94;5059884;28;20102;-74
2024/02/10 04:40:02;;;;;;;172.65;49.83;;;;;;;4.90;100.00;93978.19;5050428;28;20036;-74
2024/02/10 04:42:28;;;;;;;151.35;48.67;;;;;;;4.90;100.00;93980.91;5054374;28;20055;-74
2024/02/10 04:44:54;;;;;;;155.60;49.35;;;;;;;4.92;100.00;93979.34;5064048;28;20039;-75
2024/02/10 04:47:19;;;;;;;113.65;44.03;;;;;;;4.96;100.00;93969.22;5058164;28;20037;-77
2024/02/10 04:49:44;;;;;;;119.20;46.08;;;;;;;5.03;100.00;93976.56;5065454;28;20032;-75
2024/02/10 04:52:10;;;;;;;123.85;46.50;;;;;;;5.04;100.00;93974.59;5057385;28;20056;-74
2024/02/10 04:54:36;;;;;;;133.57;48.80;;;;;;;5.00;100.00;93971.91;5072646;28;20044;-73
2024/02/10 04:57:03;;;;;;;147.30;50.42;;;;;;;5.10;100.00;93968.38;5054887;28;20081;-74
2024/02/10 04:59:29;;;;;;;128.82;50.60;;;;;;;5.17;100.00;93964.84;5057906;28;20110;-73
2024/02/10 05:01:55;;;;;;;106.82;46.97;;;;;;;5.16;100.00;93966.00;5052671;28;20441;-73
2024/02/10 05:04:21;;;;;;;101.50;43.88;;;;;;;5.12;100.00;93951.69;5048639;28;20454;-73
2024/02/10 05:06:47;;;;;;;94.78;45.40;;;;;;;5.15;100.00;93950.91;5054556;28;20045;-73
2024/02/10 05:09:13;;;;;;;84.47;43.47;;;;;;;5.15;100.00;93957.09;5011988;28;20450;-73
2024/02/10 05:11:40;;;;;;;88.22;44.40;;;;;;;5.20;100.00;93955.13;5024376;28;20041;-75
2024/02/10 05:14:08;;;;;;;86.93;43.05;;;;;;;5.14;100.00;93950.13;5007666;28;20041;-76
2024/02/10 05:16:34;;;;;;;88.82;43.95;;;;;;;5.17;100.00;93952.03;5034296;28;20041;-75
2024/02/10 05:19:00;;;;;;;89.95;43.70;;;;;;;5.26;100.00;93958.97;5047904;28;20087;-73
2024/02/10 05:21:28;;;;;;;82.25;40.30;;;;;;;5.40;100.00;93952.66;5042332;28;20064;-74
2024/02/10 05:24:05;;;;;;;81.90;41.95;;;;;;;5.44;100.00;93951.47;5056677;28;20040;-72
2024/02/10 05:26:40;;;;;;;73.47;40.25;;;;;;;5.40;100.00;93949.94;5053708;28;20048;-71
2024/02/10 05:29:10;;;;;;;72.15;40.38;;;;;;;5.39;100.00;93948.41;5047142;28;20041;-73
2024/02/10 05:31:39;;;;;;;77.65;39.70;;;;;;;5.39;100.00;93949.16;5056404;28;20044;-73
2024/02/10 05:34:06;;;;;;;73.40;39.58;;;;;;;5.36;100.00;93945.28;5056200;28;20585;-73
2024/02/10 05:36:35;;;;;;;73.00;38.40;;;;;;;5.36;100.00;93948.00;5050255;28;20669;-73
2024/02/10 05:39:07;;;;;;;67.90;37.53;;;;;;;5.36;100.00;93952.69;5052967;28;20681;-74
2024/02/10 05:41:32;;;;;;;71.50;39.30;;;;;;;5.51;100.00;93950.59;5042891;28;20048;-74
2024/02/10 05:43:58;;;;;;;63.38;36.55;;;;;;;5.51;100.00;93954.13;5060516;28;20044;-74
2024/02/10 05:46:23;;;;;;;66.55;37.47;;;;;;;5.48;100.00;93946.00;5046802;28;20109;-75
2024/02/10 05:48:50;;;;;;;64.75;37.08;;;;;;;5.48;100.00;93949.47;5048075;28;20037;-74
2024/02/10 05:51:17;;;;;;;59.08;33.95;;;;;;;5.54;100.00;93945.16;5046876;28;20713;-75
2024/02/10 05:53:46;;;;;;;54.55;33.92;;;;;;;5.58;100.00;93941.63;5041301;28;20141;-74
2024/02/10 05:56:15;;;;;;;56.28;33.10;;;;;;;5.57;100.00;93942.81;5059467;28;20410;-74
2024/02/10 05:58:44;;;;;;;49.22;31.73;;;;;;;5.59;100.00;93941.25;5063576;28;20047;-74
2024/02/10 06:01:19;;;;;;;51.00;31.20;;;;;;;5.65;100.00;93944.28;5057014;28;20096;-75
2024/02/10 06:03:44;;;;;;;47.25;30.70;;;;;;;5.66;100.00;93926.84;5064833;28;20657;-73
2024/02/10 06:06:10;;;;;;;46.03;28.63;;;;;;;5.70;100.00;93931.03;5056229;28;20127;-74
2024/02/10 06:08:36;;;;;;;43.33;27.17;;;;;;;5.83;100.00;93930.53;5057835;28;20040;-74
2024/02/10 06:11:02;;;;;;;46.80;27.73;;;;;;;5.80;100.00;93925.91;5057457;28;20072;-73
2024/02/10 06:13:29;;;;;;;39.67;25.58;;;;;;;5.89;100.00;93935.13;5054474;28;20043;-74
2024/02/10 06:15:55;;;;;;;35.13;23.33;;;;;;;5.87;100.00;93923.13;5053345;28;20054;-74
2024/02/10 06:18:30;;;;;;;37.22;23.65;;;;;;;5.84;100.00;93924.72;5054797;28;20495;-74
2024/02/10 06:21:00;;;;;;;33.80;20.83;;;;;;;5.75;100.00;93917.03;5054576;28;20048;-74
2024/02/10 06:23:26;;;;;;;;;;;;;;;5.75;100.00;93913.56;5043441;28;20040;-73
2024/02/10 06:25:53;;;;;;;34.70;19.48;;;;;;;5.65;100.00;93912.47;5038776;28;19978;-73
2024/02/10 06:28:21;;;;;;;29.25;19.55;;;;;;;5.58;100.00;93911.78;5042383;28;20036;-74
2024/02/10 06:30:49;;;;;;;28.40;18.52;;;;;;;5.57;100.00;93907.53;5043305;28;20453;-73
2024/02/10 06:33:28;;;;;;;27.10;17.13;;;;;;;5.37;100.00;93908.09;5048221;28;20134;-73
2024/02/10 06:35:57;;;;;;;30.25;17.08;;;;;;;5.22;100.00;93906.66;5052167;28;20098;-74
2024/02/10 06:38:23;;;;;;;26.75;17.00;;;;;;;5.26;100.00;93899.28;5036947;28;20069;-73
2024/02/10 06:40:48;;;;;;;25.45;16.45;;;;;;;5.26;100.00;93900.03;5056888;28;20076;-74
2024/02/10 06:43:13;;;;;;;25.48;16.15;;;;;;;5.19;100.00;93900.09;5034529;28;20095;-73
2024/02/10 06:45:40;;;;;;;26.08;15.40;;;;;;;5.16;100.00;93892.75;5048211;28;20126;-73
2024/02/10 06:48:07;;;;;;;24.35;14.40;;;;;;;5.07;100.00;93892.44;5042401;28;20491;-74
2024/02/10 06:50:35;;;;;;;24.35;14.95;;;;;;;4.99;100.00;93883.59;5044976;28;20051;-74
2024/02/10 06:53:00;;;;;;;23.90;14.00;;;;;;;4.97;100.00;93873.13;5057514;28;20075;-74
2024/02/10 06:55:26;;;;;;;25.85;16.08;;;;;;;5.00;100.00;93876.97;5063657;28;20045;-72
2024/02/10 06:57:55;;;;;;;21.10;13.93;;;;;;;4.91;100.00;93876.66;5052764;28;20060;-73
2024/02/10 07:00:22;;;;;;;20.38;13.60;;;;;;;4.90;100.00;93880.56;5053258;28;22307;-72
2024/02/10 07:02:48;;;;;;;23.85;14.73;;;;;;;4.70;100.00;93877.56;5058219;28;20048;-74
2024/02/10 07:05:18;;;;;;;21.20;14.00;;;;;;;4.59;100.00;93880.34;5050498;28;20041;-74
2024/02/10 07:07:49;;;;;;;22.83;15.60;;;;;;;4.59;100.00;93881.16;5042575;28;20041;-74
2024/02/10 07:10:19;;;;;;;22.55;14.80;;;;;;;4.58;100.00;93881.53;5038595;28;20048;-73
2024/02/10 07:12:46;;;;;;;23.27;15.80;;;;;;;4.55;100.00;93877.66;5047640;28;20036;-73
2024/02/10 07:15:19;;;;;;;22.95;15.88;;;;;;;4.68;100.00;93880.72;5040927;28;20209;-74
2024/02/10 07:17:47;;;;;;;26.30;16.55;;;;;;;4.69;100.00;93895.78;5059794;28;20040;-74
2024/02/10 07:20:21;;;;;;;24.48;16.30;;;;;;;4.45;100.00;93891.28;5061112;28;20044;-73
2024/02/10 07:22:55;;;;;;;24.40;16.17;;;;;;;4.39;100.00;93891.72;5060456;28;20052;-75
2024/02/10 07:25:25;;;;;;;25.48;16.25;;;;;;;4.37;100.00;93898.69;5034144;28;20036;-73
2024/02/10 07:27:50;;;;;;;30.42;18.52;;;;;;;4.52;100.00;93894.75;5062252;28;20037;-73
2024/02/10 07:30:17;;;;;;;33.35;23.80;;;;;;;4.57;100.00;93907.09;5051105;28;20043;-73
2024/02/10 07:32:44;;;;;;;33.53;20.80;;;;;;;4.67;100.00;93906.25;5053404;28;20041;-74
2024/02/10 07:35:10;;;;;;;32.78;24.35;;;;;;;4.77;100.00;93910.84;5041556;28;20565;-74
2024/02/10 07:37:35;;;;;;;33.05;21.20;;;;;;;4.71;100.00;93923.28;5050306;28;20132;-74
2024/02/10 07:40:03;;;;;;;31.90;21.75;;;;;;;4.67;100.00;93921.75;5049150;28;20068;-73
2024/02/10 07:42:28;;;;;;;27.73;20.25;;;;;;;4.69;100.00;93931.03;5042711;28;20486;-74
2024/02/10 07:44:55;;;;;;;33.70;23.63;;;;;;;4.69;100.00;93931.03;5059113;28;20140;-74
2024/02/10 07:47:23;;;;;;;35.03;22.65;;;;;;;4.87;100.00;93936.34;5044681;28;20072;-73
2024/02/10 07:49:52;;;;;;;29.98;20.83;;;;;;;4.86;100.00;93942.97;5042488;28;20160;-74
2024/02/10 07:52:20;;;;;;;36.65;22.30;;;;;;;4.69;100.00;93936.47;5052333;28;20123;-75
2024/02/10 07:54:47;;;;;;;32.50;21.55;;;;;;;4.57;100.00;93932.28;5045633;28;20703;-74
2024/02/10 07:57:19;;;;;;;29.05;19.13;;;;;;;4.67;100.00;93941.50;5049584;28;20415;-73
2024/02/10 07:59:48;;;;;;;24.65;17.05;;;;;;;4.82;100.00;93938.72;5051231;28;20050;-74
2024/02/10 08:02:16;;;;;;;25.70;17.30;;;;;;;4.93;100.00;93934.00;5041535;28;20041;-75
2024/02/10 08:04:42;;;;;;;29.20;16.85;;;;;;;5.21;100.00;93941.16;5050532;28;20124;-75
2024/02/10 08:07:08;;;;;;;23.42;16.05;;;;;;;5.27;100.00;93944.22;5043099;28;20041;-74
2024/02/10 08:09:33;;;;;;;21.65;14.35;;;;;;;5.17;100.00;93929.56;5047714;28;20597;-72
2024/02/10 08:11:58;;;;;;;31.20;20.92;;;;;;;5.06;100.00;93928.88;5056612;28;20048;-73
2024/02/10 08:14:25;;;;;;;25.92;18.30;;;;;;;4.67;100.00;93924.47;5042757;28;20041;-73
2024/02/10 08:16:51;;;;;;;24.35;15.55;;;;;;;4.94;100.00;93911.91;5060286;28;20048;-72
2024/02/10 08:19:18;;;;;;;23.25;16.05;;;;;;;5.07;100.00;93919.56;5039020;28;20399;-73
2024/02/10 08:21:44;;;;;;;25.58;16.17;;;;;;;5.11;100.00;93933.88;5042028;28;20581;-73
2024/02/10 08:24:11;;;;;;;23.98;16.27;;;;;;;5.10;100.00;93926.91;5045627;28;20136;-72
2024/02/10 08:26:37;;;;;;;28.10;16.70;;;;;;;5.28;100.00;93922.13;5047630;28;20040;-72
2024/02/10 08:29:03;;;;;;;24.67;16.65;;;;;;;5.37;100.00;93921.66;5058708;28;20040;-72
2024/02/10 08:31:30;;;;;;;26.00;17.45;;;;;;;5.32;100.00;93906.56;5061280;28;20063;-72
2024/02/10 08:33:58;;;;;;;28.02;18.13;;;;;;;5.28;100.00;93908.53;5062067;28;20041;-74
2024/02/10 08:36:25;;;;;;;24.38;16.95;;;;;;;5.46;100.00;93911.09;5040288;28;20090;-75
2024/02/10 08:38:52;;;;;;;26.83;16.70;;;;;;;5.53;100.00;93902.91;5052173;28;20051;-74
2024/02/10 08:41:18;;;;;;;26.65;16.90;;;;;;;5.63;100.00;93895.81;5057468;28;20507;-74
2024/02/10 08:43:49;;;;;;;25.45;14.77;;;;;;;5.70;100.00;93884.13;5054222;28;20045;-75
2024/02/10 08:46:15;;;;;;;24.70;15.75;;;;;;;5.83;100.00;93887.09;5057669;28;20041;-75
2024/02/10 08:48:43;;;;;;;21.15;15.82;;;;;;;5.87;100.00;93879.66;5054456;28;20040;-72
2024/02/10 08:51:12;;;;;;;22.98;14.85;;;;;;;5.93;100.00;93881.53;5042554;28;20619;-72
2024/02/10 08:53:41;;;;;;;21.13;15.65;;;;;;;5.93;100.00;93880.78;5049002;28;20055;-73
2024/02/10 08:56:10;;;;;;;23.25;15.25;;;;;;;6.04;100.00;93881.44;5037718;28;20140;-73
2024/02/10 08:58:39;;;;;;;23.05;15.30;;;;;;;5.83;100.00;93865.34;5051430;28;20072;-72
2024/02/10 09:01:05;;;;;;;22.88;15.32;;;;;;;5.93;100.00;93864.47;5054457;28;20055;-71
2024/02/10 09:03:31;;;;;;;29.38;17.98;;;;;;;5.90;100.00;93868.75;5051632;28;20064;-73
2024/02/10 09:05:57;;;;;;;27.48;17.40;;;;;;;5.89;100.00;93869.19;5055675;28;20041;-72
2024/02/10 09:08:22;;;;;;;22.55;15.57;;;;;;;5.72;100.00;93874.38;5040099;28;20033;-72
2024/02/10 09:10:48;;;;;;;21.98;15.82;;;;;;;6.00;100.00;93874.53;5049544;28;20048;-71
2024/02/10 09:13:13;;;;;;;26.85;17.50;;;;;;;5.66;100.00;93850.81;5040860;28;20044;-72
2024/02/10 09:15:39;;;;;;;23.55;16.15;;;;;;;5.59;100.00;93845.44;5045231;28;20148;-72
2024/02/10 09:18:04;;;;;;;35.03;20.85;;;;;;;5.49;100.00;93852.50;5048870;28;20131;-72
2024/02/10 09:20:32;;;;;;;30.73;19.17;;;;;;;5.73;100.00;93850.72;5044541;28;20372;-72
2024/02/10 09:22:59;;;;;;;26.77;17.77;;;;;;;5.94;100.00;93850.50;5050544;28;20483;-72
2024/02/10 09:25:27;;;;;;;26.42;18.02;;;;;;;5.97;100.00;93842.72;5033469;28;20045;-72
2024/02/10 09:27:56;;;;;;;30.77;17.60;;;;;;;5.93;100.00;93857.09;5059340;28;20507;-72
2024/02/10 09:30:22;;;;;;;28.45;17.33;;;;;;;5.88;100.00;93852.09;5042627;28;20052;-73
2024/02/10 09:32:47;;;;;;;25.20;17.55;;;;;;;5.82;100.00;93845.56;5043189;28;20108;-73
2024/02/10 09:35:13;;;;;;;26.58;17.58;;;;;;;5.77;100.00;93842.53;5045063;28;20456;-74
2024/02/10 09:37:38;;;;;;;26.85;18.73;;;;;;;5.83;100.00;93838.94;5040109;28;20060;-73
2024/02/10 09:40:07;;;;;;;28.92;18.42;;;;;;;5.90;100.00;93835.41;5042942;28;20053;-74
2024/02/10 09:42:46;;;;;;;25.75;17.75;;;;;;;6.09;100.00;93823.94;5049478;28;20153;-74
2024/02/10 09:45:13;;;;;;;25.23;16.85;;;;;;;6.20;100.00;93821.09;5035724;28;20067;-74
2024/02/10 09:47:39;;;;;;;27.35;20.35;;;;;;;6.34;100.00;93803.81;5047564;28;20041;-73
2024/02/10 09:50:13;;;;;;;25.02;20.02;;;;;;;6.45;100.00;93799.00;5041682;28;20083;-74
2024/02/10 09:52:39;;;;;;;26.45;16.75;;;;;;;6.36;100.00;93785.16;5044345;28;20048;-74
2024/02/10 09:55:05;;;;;;;25.33;17.27;;;;;;;6.18;100.00;93792.78;5044020;28;20473;-73
2024/02/10 09:57:33;;;;;;;25.52;17.63;;;;;;;5.94;100.00;93781.78;5038106;28;20044;-74
2024/02/10 09:59:59;;;;;;;26.83;17.92;;;;;;;5.96;100.00;93775.97;5032228;28;20048;-74
2024/02/10 10:02:27;;;;;;;25.60;18.33;;;;;;;6.05;100.00;93766.16;5042672;28;20142;-73
2024/02/10 10:04:53;;;;;;;24.25;17.70;;;;;;;6.24;100.00;93764.72;5047971;28;20198;-74
2024/02/10 10:07:20;;;;;;;43.60;35.28;;;;;;;6.47;100.00;93752.38;5048563;28;20096;-72
2024/02/10 10:09:46;;;;;;;54.88;41.55;;;;;;;6.51;100.00;93753.84;5040468;28;20072;-73
2024/02/10 10:12:11;;;;;;;55.38;46.78;;;;;;;6.63;100.00;93741.63;5042541;28;20137;-71
2024/02/10 10:14:38;;;;;;;37.30;26.17;;;;;;;6.68;100.00;93737.63;5039584;28;20074;-72
2024/02/10 10:17:05;;;;;;;28.73;18.30;;;;;;;6.73;100.00;93742.63;5043219;28;20037;-73
2024/02/10 10:19:31;;;;;;;24.20;16.40;;;;;;;6.96;100.00;93738.38;5047623;28;20097;-72
2024/02/10 10:21:57;;;;;;;19.65;12.93;;;;;;;7.14;100.00;93733.38;5044805;28;20037;-72
2024/02/10 10:24:25;;;;;;;21.67;14.13;;;;;;;7.37;100.00;93737.25;5037778;28;20808;-72
2024/02/10 10:26:53;;;;;;;13.30;9.75;;;;;;;7.56;100.00;93725.59;5039126;28;20045;-73
2024/02/10 10:29:20;;;;;;;15.45;9.60;;;;;;;7.65;100.00;93730.44;5035834;28;20419;-73
2024/02/10 10:31:48;;;;;;;11.60;7.60;;;;;;;7.83;100.00;93722.69;5057369;28;20483;-73
2024/02/10 10:34:18;;;;;;;11.27;6.93;;;;;;;8.14;100.00;93729.81;5042054;28;20399;-73
2024/02/10 10:36:45;;;;;;;11.65;7.45;;;;;;;8.31;100.00;93725.94;5041652;28;20074;-73
2024/02/10 10:39:11;;;;;;;10.90;7.20;;;;;;;8.39;100.00;93719.13;5043853;28;20458;-74
2024/02/10 10:41:38;;;;;;;11.88;6.30;;;;;;;8.49;100.00;93717.38;5040789;28;20068;-73
2024/02/10 10:44:04;;;;;;;14.13;7.50;;;;;;;8.60;100.00;93717.88;5033107;28;20610;-73
2024/02/10 10:46:31;;;;;;;11.85;6.43;;;;;;;8.69;100.00;93711.06;5020576;28;20136;-74
2024/02/10 10:48:58;;;;;;;10.15;6.35;;;;;;;8.79;100.00;93701.84;5008545;28;20038;-73
2024/02/10 10:51:31;;;;;;;9.32;5.85;;;;;;;8.91;100.00;93694.91;5005211;28;20045;-72
2024/02/10 10:53:56;;;;;;;10.63;6.68;;;;;;;9.03;100.00;93682.53;5015400;28;20056;-73
2024/02/10 10:56:24;;;;;;;10.15;7.07;;;;;;;9.14;100.00;93683.00;5014046;28;20588;-73
2024/02/10 10:58:59;;;;;;;12.70;6.93;;;;;;;9.25;100.00;93666.34;5005195;28;20099;-72
2024/02/10 11:01:26;;;;;;;11.32;6.18;;;;;;;9.35;100.00;93646.94;5020271;28;20050;-74
2024/02/10 11:04:01;;;;;;;9.85;5.47;;;;;;;9.43;100.00;93646.72;5058072;28;20043;-73
2024/02/10 11:06:33;;;;;;;10.63;4.90;;;;;;;9.59;100.00;93638.47;5044187;28;20043;-73
2024/02/10 11:09:04;;;;;;;11.43;7.90;;;;;;;9.66;100.00;93632.03;5026211;28;20033;-72
2024/02/10 11:11:37;;;;;;;8.82;5.03;;;;;;;9.94;100.00;93635.88;5045481;28;20041;-72
2024/02/10 11:14:09;;;;;;;8.27;5.05;;;;;;;9.87;100.00;93627.91;5046438;28;20049;-73
2024/02/10 11:16:35;;;;;;;7.95;5.43;;;;;;;10.02;100.00;93615.31;5046567;28;20062;-73
2024/02/10 11:19:00;;;;;;;7.80;5.07;;;;;;;10.17;100.00;93626.56;5049801;28;20209;-73